Aviation Digital Data Service (ADDS)

Output produced by METARs form (0856 UTC 18 August 2017)
found at http://aviationweather.gov/adds/metars/
 
KSTS 180853Z AUTO 17004KT 10SM OVC004 13/13 A2999 RMK AO2 SLP148 T01330128 50002
KSTS 180524Z 1806/1906 16005KT P6SM SCT007 
     FM180800 VRB03KT P6SM OVC005 
     FM181100 VRB03KT 2SM BR OVC003 
     FM181700 00000KT P6SM SCT006 
     FM181900 18010KT P6SM SKC 
     FM190400 15005KT P6SM SKC